Terminal Aerodrome Forecast
Issued by NWS

Home | Current Version | Previous Version | Text Only | Print | Product List | Glossary On
Versions: 1 2 3 4 5 6 7 8 9 10 11 12
000
FTUS45 KABQ 161722
TAFROW
TAF
KROW 161722Z 1618/1718 15008KT P6SM SKC
     FM162000 18015G23KT P6SM SKC
     FM170100 21011KT P6SM SCT250
     FM170600 25006KT P6SM BKN200
     FM171400 02006KT P6SM OVC150=

USA.gov is the U.S. government's official web portal to all federal, state and local government web resources and services.